sensor_id;sensor_type;location;lat;lon;timestamp;P1;durP1;ratioP1;P2;durP2;ratioP2
55455;SDS011;63021;52.836;6.376;2023-04-24T00:00:43;1.60;;;1.10;;
55455;SDS011;63021;52.836;6.376;2023-04-24T00:03:10;0.70;;;0.70;;
55455;SDS011;63021;52.836;6.376;2023-04-24T00:05:36;0.85;;;0.80;;
55455;SDS011;63021;52.836;6.376;2023-04-24T00:08:01;0.80;;;0.80;;
55455;SDS011;63021;52.836;6.376;2023-04-24T00:10:26;1.05;;;1.00;;
55455;SDS011;63021;52.836;6.376;2023-04-24T00:12:52;1.77;;;1.00;;
55455;SDS011;63021;52.836;6.376;2023-04-24T00:15:18;1.95;;;0.90;;
55455;SDS011;63021;52.836;6.376;2023-04-24T00:17:43;1.92;;;1.08;;
55455;SDS011;63021;52.836;6.376;2023-04-24T00:20:09;1.17;;;1.17;;
55455;SDS011;63021;52.836;6.376;2023-04-24T00:22:35;0.90;;;0.90;;
55455;SDS011;63021;52.836;6.376;2023-04-24T00:25:00;1.48;;;1.10;;
55455;SDS011;63021;52.836;6.376;2023-04-24T00:27:28;1.95;;;1.20;;
55455;SDS011;63021;52.836;6.376;2023-04-24T00:29:54;0.90;;;0.90;;
55455;SDS011;63021;52.836;6.376;2023-04-24T00:32:19;0.80;;;0.80;;
55455;SDS011;63021;52.836;6.376;2023-04-24T00:34:45;1.00;;;1.00;;
55455;SDS011;63021;52.836;6.376;2023-04-24T00:37:10;1.10;;;1.10;;
55455;SDS011;63021;52.836;6.376;2023-04-24T00:39:36;1.08;;;1.08;;
55455;SDS011;63021;52.836;6.376;2023-04-24T00:42:02;1.33;;;1.30;;
55455;SDS011;63021;52.836;6.376;2023-04-24T00:44:27;1.70;;;1.27;;
55455;SDS011;63021;52.836;6.376;2023-04-24T00:46:53;1.40;;;1.40;;
55455;SDS011;63021;52.836;6.376;2023-04-24T00:49:20;1.67;;;1.58;;
55455;SDS011;63021;52.836;6.376;2023-04-24T00:51:46;1.50;;;1.50;;
55455;SDS011;63021;52.836;6.376;2023-04-24T00:54:14;1.52;;;1.52;;
55455;SDS011;63021;52.836;6.376;2023-04-24T00:56:40;1.40;;;1.40;;
55455;SDS011;63021;52.836;6.376;2023-04-24T00:59:07;1.45;;;1.40;;
55455;SDS011;63021;52.836;6.376;2023-04-24T01:01:35;2.17;;;2.05;;
55455;SDS011;63021;52.836;6.376;2023-04-24T01:04:01;1.75;;;1.65;;
55455;SDS011;63021;52.836;6.376;2023-04-24T01:06:27;3.10;;;2.90;;
55455;SDS011;63021;52.836;6.376;2023-04-24T01:08:56;2.53;;;2.30;;
55455;SDS011;63021;52.836;6.376;2023-04-24T01:11:22;2.33;;;2.22;;
55455;SDS011;63021;52.836;6.376;2023-04-24T01:13:47;3.00;;;2.63;;
55455;SDS011;63021;52.836;6.376;2023-04-24T01:16:13;2.60;;;2.50;;
55455;SDS011;63021;52.836;6.376;2023-04-24T01:18:40;2.88;;;2.50;;
55455;SDS011;63021;52.836;6.376;2023-04-24T01:21:06;2.92;;;2.72;;
55455;SDS011;63021;52.836;6.376;2023-04-24T01:23:33;3.30;;;3.10;;
55455;SDS011;63021;52.836;6.376;2023-04-24T01:25:59;3.15;;;2.95;;
55455;SDS011;63021;52.836;6.376;2023-04-24T01:28:24;3.47;;;3.17;;
55455;SDS011;63021;52.836;6.376;2023-04-24T01:30:50;3.47;;;3.17;;
55455;SDS011;63021;52.836;6.376;2023-04-24T01:33:16;4.00;;;3.70;;
55455;SDS011;63021;52.836;6.376;2023-04-24T01:35:42;4.30;;;3.88;;
55455;SDS011;63021;52.836;6.376;2023-04-24T01:38:08;3.63;;;3.35;;
55455;SDS011;63021;52.836;6.376;2023-04-24T01:40:33;3.97;;;3.67;;
55455;SDS011;63021;52.836;6.376;2023-04-24T01:42:59;3.90;;;3.60;;
55455;SDS011;63021;52.836;6.376;2023-04-24T01:45:25;4.50;;;4.20;;
55455;SDS011;63021;52.836;6.376;2023-04-24T01:47:50;3.97;;;3.70;;
55455;SDS011;63021;52.836;6.376;2023-04-24T01:50:15;3.72;;;3.38;;
55455;SDS011;63021;52.836;6.376;2023-04-24T01:52:41;3.80;;;3.55;;
55455;SDS011;63021;52.836;6.376;2023-04-24T01:55:07;4.18;;;3.88;;
55455;SDS011;63021;52.836;6.376;2023-04-24T01:57:33;4.13;;;3.83;;
55455;SDS011;63021;52.836;6.376;2023-04-24T01:59:58;4.20;;;3.90;;
55455;SDS011;63021;52.836;6.376;2023-04-24T02:02:24;4.28;;;3.83;;
55455;SDS011;63021;52.836;6.376;2023-04-24T02:04:52;4.10;;;3.80;;
55455;SDS011;63021;52.836;6.376;2023-04-24T02:07:20;4.18;;;3.78;;
55455;SDS011;63021;52.836;6.376;2023-04-24T02:09:46;4.28;;;3.97;;
55455;SDS011;63021;52.836;6.376;2023-04-24T02:12:11;3.78;;;3.50;;
55455;SDS011;63021;52.836;6.376;2023-04-24T02:14:36;3.55;;;3.35;;
55455;SDS011;63021;52.836;6.376;2023-04-24T02:17:02;3.65;;;3.35;;
55455;SDS011;63021;52.836;6.376;2023-04-24T02:19:28;3.50;;;3.30;;
55455;SDS011;63021;52.836;6.376;2023-04-24T02:21:54;3.80;;;3.50;;
55455;SDS011;63021;52.836;6.376;2023-04-24T02:24:19;3.78;;;3.47;;
55455;SDS011;63021;52.836;6.376;2023-04-24T02:26:45;3.60;;;3.30;;
55455;SDS011;63021;52.836;6.376;2023-04-24T02:29:10;3.20;;;3.00;;
55455;SDS011;63021;52.836;6.376;2023-04-24T02:31:35;3.00;;;2.88;;
55455;SDS011;63021;52.836;6.376;2023-04-24T02:34:01;3.13;;;2.92;;
55455;SDS011;63021;52.836;6.376;2023-04-24T02:36:26;3.10;;;2.90;;
55455;SDS011;63021;52.836;6.376;2023-04-24T02:38:52;3.22;;;3.03;;
55455;SDS011;63021;52.836;6.376;2023-04-24T02:41:17;2.60;;;2.50;;
55455;SDS011;63021;52.836;6.376;2023-04-24T02:43:43;3.00;;;2.80;;
55455;SDS011;63021;52.836;6.376;2023-04-24T02:46:08;3.10;;;2.90;;
55455;SDS011;63021;52.836;6.376;2023-04-24T02:48:33;4.22;;;2.83;;
55455;SDS011;63021;52.836;6.376;2023-04-24T02:50:59;2.65;;;2.55;;
55455;SDS011;63021;52.836;6.376;2023-04-24T02:53:24;2.45;;;2.35;;
55455;SDS011;63021;52.836;6.376;2023-04-24T02:55:50;3.10;;;2.20;;
55455;SDS011;63021;52.836;6.376;2023-04-24T02:58:15;5.20;;;2.38;;
55455;SDS011;63021;52.836;6.376;2023-04-24T03:00:41;2.35;;;2.25;;
55455;SDS011;63021;52.836;6.376;2023-04-24T03:03:08;2.85;;;1.88;;
55455;SDS011;63021;52.836;6.376;2023-04-24T03:05:33;1.92;;;1.83;;
55455;SDS011;63021;52.836;6.376;2023-04-24T03:07:59;2.33;;;1.88;;
55455;SDS011;63021;52.836;6.376;2023-04-24T03:10:24;3.13;;;1.90;;
55455;SDS011;63021;52.836;6.376;2023-04-24T03:12:50;2.22;;;2.03;;
55455;SDS011;63021;52.836;6.376;2023-04-24T03:15:15;2.45;;;1.70;;
55455;SDS011;63021;52.836;6.376;2023-04-24T03:17:41;2.33;;;2.20;;
55455;SDS011;63021;52.836;6.376;2023-04-24T03:20:06;2.20;;;2.10;;
55455;SDS011;63021;52.836;6.376;2023-04-24T03:22:34;2.17;;;1.73;;
55455;SDS011;63021;52.836;6.376;2023-04-24T03:25:00;2.13;;;2.00;;
55455;SDS011;63021;52.836;6.376;2023-04-24T03:27:26;2.42;;;1.92;;
55455;SDS011;63021;52.836;6.376;2023-04-24T03:29:53;2.00;;;1.90;;
55455;SDS011;63021;52.836;6.376;2023-04-24T03:32:23;2.42;;;2.22;;
55455;SDS011;63021;52.836;6.376;2023-04-24T03:34:49;2.63;;;2.45;;
55455;SDS011;63021;52.836;6.376;2023-04-24T03:37:15;2.20;;;2.10;;
55455;SDS011;63021;52.836;6.376;2023-04-24T03:39:41;2.17;;;2.08;;
55455;SDS011;63021;52.836;6.376;2023-04-24T03:42:07;4.22;;;2.03;;
55455;SDS011;63021;52.836;6.376;2023-04-24T03:44:33;2.42;;;2.05;;
55455;SDS011;63021;52.836;6.376;2023-04-24T03:46:59;2.45;;;2.25;;
55455;SDS011;63021;52.836;6.376;2023-04-24T03:49:27;5.78;;;2.10;;
55455;SDS011;63021;52.836;6.376;2023-04-24T03:51:55;1.92;;;1.80;;
55455;SDS011;63021;52.836;6.376;2023-04-24T03:54:20;1.98;;;1.88;;
55455;SDS011;63021;52.836;6.376;2023-04-24T03:56:46;1.58;;;1.48;;
55455;SDS011;63021;52.836;6.376;2023-04-24T03:59:11;1.15;;;1.15;;
55455;SDS011;63021;52.836;6.376;2023-04-24T04:01:38;3.90;;;1.48;;
55455;SDS011;63021;52.836;6.376;2023-04-24T04:04:05;1.35;;;1.35;;
55455;SDS011;63021;52.836;6.376;2023-04-24T04:06:33;4.40;;;1.40;;
55455;SDS011;63021;52.836;6.376;2023-04-24T04:08:59;1.20;;;1.20;;
55455;SDS011;63021;52.836;6.376;2023-04-24T04:11:25;1.45;;;1.00;;
55455;SDS011;63021;52.836;6.376;2023-04-24T04:13:51;0.80;;;0.80;;
55455;SDS011;63021;52.836;6.376;2023-04-24T04:16:16;1.23;;;0.90;;
55455;SDS011;63021;52.836;6.376;2023-04-24T04:18:45;0.77;;;0.77;;
55455;SDS011;63021;52.836;6.376;2023-04-24T04:21:11;2.00;;;0.75;;
55455;SDS011;63021;52.836;6.376;2023-04-24T04:23:36;0.70;;;0.70;;
55455;SDS011;63021;52.836;6.376;2023-04-24T04:26:02;1.65;;;1.48;;
55455;SDS011;63021;52.836;6.376;2023-04-24T04:28:29;0.88;;;0.88;;
55455;SDS011;63021;52.836;6.376;2023-04-24T04:30:57;0.95;;;0.95;;
55455;SDS011;63021;52.836;6.376;2023-04-24T04:33:23;1.10;;;1.10;;
55455;SDS011;63021;52.836;6.376;2023-04-24T04:35:49;0.90;;;0.90;;
55455;SDS011;63021;52.836;6.376;2023-04-24T04:38:17;3.08;;;1.00;;
55455;SDS011;63021;52.836;6.376;2023-04-24T04:40:43;0.95;;;0.90;;
55455;SDS011;63021;52.836;6.376;2023-04-24T04:43:09;1.10;;;1.10;;
55455;SDS011;63021;52.836;6.376;2023-04-24T04:45:35;1.70;;;1.10;;
55455;SDS011;63021;52.836;6.376;2023-04-24T04:48:02;1.17;;;1.17;;
55455;SDS011;63021;52.836;6.376;2023-04-24T04:50:28;1.20;;;1.10;;
55455;SDS011;63021;52.836;6.376;2023-04-24T04:52:54;2.75;;;1.20;;
55455;SDS011;63021;52.836;6.376;2023-04-24T04:55:19;1.00;;;1.00;;
55455;SDS011;63021;52.836;6.376;2023-04-24T04:57:45;1.20;;;1.20;;
55455;SDS011;63021;52.836;6.376;2023-04-24T05:00:11;1.30;;;1.30;;
55455;SDS011;63021;52.836;6.376;2023-04-24T05:02:40;2.30;;;1.35;;
55455;SDS011;63021;52.836;6.376;2023-04-24T05:05:06;1.38;;;1.25;;
55455;SDS011;63021;52.836;6.376;2023-04-24T05:07:33;3.55;;;2.05;;
55455;SDS011;63021;52.836;6.376;2023-04-24T05:09:59;1.30;;;1.30;;
55455;SDS011;63021;52.836;6.376;2023-04-24T05:12:25;1.40;;;1.30;;
55455;SDS011;63021;52.836;6.376;2023-04-24T05:14:50;1.20;;;1.20;;
55455;SDS011;63021;52.836;6.376;2023-04-24T05:17:16;1.00;;;1.00;;
55455;SDS011;63021;52.836;6.376;2023-04-24T05:19:42;1.33;;;1.23;;
55455;SDS011;63021;52.836;6.376;2023-04-24T05:22:08;1.58;;;1.48;;
55455;SDS011;63021;52.836;6.376;2023-04-24T05:24:34;1.30;;;1.30;;
55455;SDS011;63021;52.836;6.376;2023-04-24T05:27:00;2.08;;;1.27;;
55455;SDS011;63021;52.836;6.376;2023-04-24T05:29:27;1.45;;;1.35;;
55455;SDS011;63021;52.836;6.376;2023-04-24T05:31:52;1.40;;;1.35;;
55455;SDS011;63021;52.836;6.376;2023-04-24T05:34:18;1.10;;;1.10;;
55455;SDS011;63021;52.836;6.376;2023-04-24T05:36:43;1.25;;;1.20;;
55455;SDS011;63021;52.836;6.376;2023-04-24T05:39:09;1.40;;;1.30;;
55455;SDS011;63021;52.836;6.376;2023-04-24T05:41:35;2.35;;;1.55;;
55455;SDS011;63021;52.836;6.376;2023-04-24T05:44:00;2.80;;;2.53;;
55455;SDS011;63021;52.836;6.376;2023-04-24T05:46:26;2.13;;;2.03;;
55455;SDS011;63021;52.836;6.376;2023-04-24T05:48:51;2.53;;;2.28;;
55455;SDS011;63021;52.836;6.376;2023-04-24T05:51:17;2.50;;;2.30;;
55455;SDS011;63021;52.836;6.376;2023-04-24T05:53:42;3.90;;;3.15;;
55455;SDS011;63021;52.836;6.376;2023-04-24T05:56:08;4.80;;;3.38;;
55455;SDS011;63021;52.836;6.376;2023-04-24T05:58:33;4.70;;;3.83;;
55455;SDS011;63021;52.836;6.376;2023-04-24T06:00:59;6.43;;;3.80;;
55455;SDS011;63021;52.836;6.376;2023-04-24T06:03:26;4.55;;;3.38;;
55455;SDS011;63021;52.836;6.376;2023-04-24T06:05:52;5.07;;;3.88;;
55455;SDS011;63021;52.836;6.376;2023-04-24T06:08:18;4.32;;;3.85;;
55455;SDS011;63021;52.836;6.376;2023-04-24T06:10:43;5.57;;;4.15;;
55455;SDS011;63021;52.836;6.376;2023-04-24T06:13:08;4.28;;;3.88;;
55455;SDS011;63021;52.836;6.376;2023-04-24T06:15:34;4.07;;;3.58;;
55455;SDS011;63021;52.836;6.376;2023-04-24T06:18:00;3.75;;;3.45;;
55455;SDS011;63021;52.836;6.376;2023-04-24T06:20:26;4.93;;;3.85;;
55455;SDS011;63021;52.836;6.376;2023-04-24T06:22:51;4.55;;;4.15;;
55455;SDS011;63021;52.836;6.376;2023-04-24T06:25:17;3.63;;;3.20;;
55455;SDS011;63021;52.836;6.376;2023-04-24T06:27:43;4.82;;;4.00;;
55455;SDS011;63021;52.836;6.376;2023-04-24T06:30:11;6.88;;;4.53;;
55455;SDS011;63021;52.836;6.376;2023-04-24T06:32:37;7.18;;;5.25;;
55455;SDS011;63021;52.836;6.376;2023-04-24T06:35:03;5.18;;;4.68;;
55455;SDS011;63021;52.836;6.376;2023-04-24T06:37:29;5.25;;;3.90;;
55455;SDS011;63021;52.836;6.376;2023-04-24T06:39:54;7.28;;;4.95;;
55455;SDS011;63021;52.836;6.376;2023-04-24T06:42:20;5.43;;;4.75;;
55455;SDS011;63021;52.836;6.376;2023-04-24T06:44:49;5.40;;;4.22;;
55455;SDS011;63021;52.836;6.376;2023-04-24T06:47:15;4.18;;;3.63;;
55455;SDS011;63021;52.836;6.376;2023-04-24T06:49:41;6.32;;;3.15;;
55455;SDS011;63021;52.836;6.376;2023-04-24T06:52:06;3.67;;;3.17;;
55455;SDS011;63021;52.836;6.376;2023-04-24T06:54:32;3.70;;;2.55;;
55455;SDS011;63021;52.836;6.376;2023-04-24T06:56:59;3.08;;;2.35;;
55455;SDS011;63021;52.836;6.376;2023-04-24T06:59:28;6.38;;;2.70;;
55455;SDS011;63021;52.836;6.376;2023-04-24T07:01:54;8.45;;;3.95;;
55455;SDS011;63021;52.836;6.376;2023-04-24T07:04:20;4.93;;;3.97;;
55455;SDS011;63021;52.836;6.376;2023-04-24T07:06:46;6.35;;;3.85;;
55455;SDS011;63021;52.836;6.376;2023-04-24T07:09:13;4.40;;;4.00;;
55455;SDS011;63021;52.836;6.376;2023-04-24T07:11:39;4.50;;;3.53;;
55455;SDS011;63021;52.836;6.376;2023-04-24T07:14:05;6.28;;;3.55;;
55455;SDS011;63021;52.836;6.376;2023-04-24T07:16:31;5.88;;;4.53;;
55455;SDS011;63021;52.836;6.376;2023-04-24T07:18:57;7.28;;;4.50;;
55455;SDS011;63021;52.836;6.376;2023-04-24T07:21:22;4.53;;;3.75;;
55455;SDS011;63021;52.836;6.376;2023-04-24T07:23:47;7.03;;;3.55;;
55455;SDS011;63021;52.836;6.376;2023-04-24T07:26:13;8.80;;;4.38;;
55455;SDS011;63021;52.836;6.376;2023-04-24T07:28:39;5.35;;;3.85;;
55455;SDS011;63021;52.836;6.376;2023-04-24T07:31:05;6.82;;;4.22;;
55455;SDS011;63021;52.836;6.376;2023-04-24T07:33:31;7.07;;;4.28;;
55455;SDS011;63021;52.836;6.376;2023-04-24T07:35:58;4.93;;;3.80;;
55455;SDS011;63021;52.836;6.376;2023-04-24T07:38:23;7.68;;;4.10;;
55455;SDS011;63021;52.836;6.376;2023-04-24T07:40:50;4.90;;;3.50;;
55455;SDS011;63021;52.836;6.376;2023-04-24T07:43:16;3.35;;;3.05;;
55455;SDS011;63021;52.836;6.376;2023-04-24T07:45:42;3.80;;;3.50;;
55455;SDS011;63021;52.836;6.376;2023-04-24T07:48:08;3.75;;;2.85;;
55455;SDS011;63021;52.836;6.376;2023-04-24T07:50:34;3.05;;;2.33;;
55455;SDS011;63021;52.836;6.376;2023-04-24T07:53:00;8.15;;;2.80;;
55455;SDS011;63021;52.836;6.376;2023-04-24T07:55:26;4.45;;;2.20;;
55455;SDS011;63021;52.836;6.376;2023-04-24T07:57:51;6.57;;;2.97;;
55455;SDS011;63021;52.836;6.376;2023-04-24T08:00:17;3.13;;;2.25;;
55455;SDS011;63021;52.836;6.376;2023-04-24T08:02:43;4.97;;;2.67;;
55455;SDS011;63021;52.836;6.376;2023-04-24T08:05:08;6.72;;;3.63;;
55455;SDS011;63021;52.836;6.376;2023-04-24T08:07:34;6.43;;;3.50;;
55455;SDS011;63021;52.836;6.376;2023-04-24T08:10:00;11.93;;;3.88;;
55455;SDS011;63021;52.836;6.376;2023-04-24T08:12:30;7.97;;;5.07;;
55455;SDS011;63021;52.836;6.376;2023-04-24T08:14:56;9.18;;;5.35;;
55455;SDS011;63021;52.836;6.376;2023-04-24T08:17:21;14.32;;;7.43;;
55455;SDS011;63021;52.836;6.376;2023-04-24T08:19:47;9.77;;;6.93;;
55455;SDS011;63021;52.836;6.376;2023-04-24T08:22:16;15.48;;;8.82;;
55455;SDS011;63021;52.836;6.376;2023-04-24T08:24:42;14.98;;;8.35;;
55455;SDS011;63021;52.836;6.376;2023-04-24T08:27:08;15.52;;;8.30;;
55455;SDS011;63021;52.836;6.376;2023-04-24T08:29:35;14.90;;;8.98;;
55455;SDS011;63021;52.836;6.376;2023-04-24T08:32:00;15.70;;;8.25;;
55455;SDS011;63021;52.836;6.376;2023-04-24T08:34:26;17.33;;;8.50;;
55455;SDS011;63021;52.836;6.376;2023-04-24T08:36:51;17.85;;;9.32;;
55455;SDS011;63021;52.836;6.376;2023-04-24T08:39:17;20.13;;;9.98;;
55455;SDS011;63021;52.836;6.376;2023-04-24T08:41:42;17.77;;;10.02;;
55455;SDS011;63021;52.836;6.376;2023-04-24T08:44:08;19.27;;;10.60;;
55455;SDS011;63021;52.836;6.376;2023-04-24T08:46:35;19.85;;;11.75;;
55455;SDS011;63021;52.836;6.376;2023-04-24T08:49:01;19.75;;;11.43;;
55455;SDS011;63021;52.836;6.376;2023-04-24T08:51:27;19.73;;;13.98;;
55455;SDS011;63021;52.836;6.376;2023-04-24T08:53:55;19.65;;;12.93;;
55455;SDS011;63021;52.836;6.376;2023-04-24T08:56:22;26.70;;;14.98;;
55455;SDS011;63021;52.836;6.376;2023-04-24T08:58:50;25.48;;;12.88;;
55455;SDS011;63021;52.836;6.376;2023-04-24T09:01:16;18.90;;;13.13;;
55455;SDS011;63021;52.836;6.376;2023-04-24T09:03:43;17.42;;;10.75;;
55455;SDS011;63021;52.836;6.376;2023-04-24T09:06:10;20.25;;;11.80;;
55455;SDS011;63021;52.836;6.376;2023-04-24T09:08:36;23.00;;;11.68;;
55455;SDS011;63021;52.836;6.376;2023-04-24T09:11:03;17.77;;;10.63;;
55455;SDS011;63021;52.836;6.376;2023-04-24T09:13:30;21.13;;;11.43;;
55455;SDS011;63021;52.836;6.376;2023-04-24T09:15:56;16.88;;;11.07;;
55455;SDS011;63021;52.836;6.376;2023-04-24T09:18:22;15.60;;;9.52;;
55455;SDS011;63021;52.836;6.376;2023-04-24T09:21:07;15.65;;;9.75;;
55455;SDS011;63021;52.836;6.376;2023-04-24T09:23:33;16.00;;;9.73;;
55455;SDS011;63021;52.836;6.376;2023-04-24T09:26:00;12.77;;;8.25;;
55455;SDS011;63021;52.836;6.376;2023-04-24T09:28:31;16.25;;;9.00;;
55455;SDS011;63021;52.836;6.376;2023-04-24T09:31:03;15.50;;;8.93;;
55455;SDS011;63021;52.836;6.376;2023-04-24T09:33:38;12.70;;;7.70;;
55455;SDS011;63021;52.836;6.376;2023-04-24T09:36:04;14.80;;;9.07;;
55455;SDS011;63021;52.836;6.376;2023-04-24T09:38:35;15.63;;;8.00;;
55455;SDS011;63021;52.836;6.376;2023-04-24T09:41:02;15.25;;;8.48;;
55455;SDS011;63021;52.836;6.376;2023-04-24T09:43:30;11.35;;;7.97;;
55455;SDS011;63021;52.836;6.376;2023-04-24T09:45:56;12.70;;;6.85;;
55455;SDS011;63021;52.836;6.376;2023-04-24T09:48:30;12.75;;;7.60;;
55455;SDS011;63021;52.836;6.376;2023-04-24T09:50:57;14.30;;;6.35;;
55455;SDS011;63021;52.836;6.376;2023-04-24T09:53:25;15.02;;;7.63;;
55455;SDS011;63021;52.836;6.376;2023-04-24T09:55:51;12.30;;;6.40;;
55455;SDS011;63021;52.836;6.376;2023-04-24T09:58:18;8.38;;;5.82;;
55455;SDS011;63021;52.836;6.376;2023-04-24T10:00:49;8.63;;;5.55;;
55455;SDS011;63021;52.836;6.376;2023-04-24T10:03:18;7.75;;;5.15;;
55455;SDS011;63021;52.836;6.376;2023-04-24T10:05:44;14.02;;;5.53;;
55455;SDS011;63021;52.836;6.376;2023-04-24T10:08:12;11.38;;;5.47;;
55455;SDS011;63021;52.836;6.376;2023-04-24T10:10:39;10.80;;;5.22;;
55455;SDS011;63021;52.836;6.376;2023-04-24T10:13:12;9.98;;;4.10;;
55455;SDS011;63021;52.836;6.376;2023-04-24T10:15:40;14.57;;;4.38;;
55455;SDS011;63021;52.836;6.376;2023-04-24T10:18:06;12.05;;;4.95;;
55455;SDS011;63021;52.836;6.376;2023-04-24T10:20:33;13.50;;;5.22;;
55455;SDS011;63021;52.836;6.376;2023-04-24T10:23:00;11.60;;;4.82;;
55455;SDS011;63021;52.836;6.376;2023-04-24T10:25:27;24.15;;;5.43;;
55455;SDS011;63021;52.836;6.376;2023-04-24T10:27:54;12.18;;;4.10;;
55455;SDS011;63021;52.836;6.376;2023-04-24T10:30:25;13.63;;;3.92;;
55455;SDS011;63021;52.836;6.376;2023-04-24T10:32:51;11.98;;;4.35;;
55455;SDS011;63021;52.836;6.376;2023-04-24T10:35:17;9.38;;;3.53;;
55455;SDS011;63021;52.836;6.376;2023-04-24T10:37:54;11.82;;;3.42;;
55455;SDS011;63021;52.836;6.376;2023-04-24T10:40:32;5.25;;;2.92;;
55455;SDS011;63021;52.836;6.376;2023-04-24T10:42:59;10.85;;;3.90;;
55455;SDS011;63021;52.836;6.376;2023-04-24T10:45:27;10.15;;;3.53;;
55455;SDS011;63021;52.836;6.376;2023-04-24T10:47:57;10.15;;;3.17;;
55455;SDS011;63021;52.836;6.376;2023-04-24T10:50:27;13.57;;;3.58;;
55455;SDS011;63021;52.836;6.376;2023-04-24T10:53:17;9.90;;;3.47;;
55455;SDS011;63021;52.836;6.376;2023-04-24T10:55:56;7.15;;;2.95;;
55455;SDS011;63021;52.836;6.376;2023-04-24T10:58:24;10.57;;;2.75;;
55455;SDS011;63021;52.836;6.376;2023-04-24T11:01:01;9.60;;;3.10;;
55455;SDS011;63021;52.836;6.376;2023-04-24T11:03:30;10.60;;;3.00;;
55455;SDS011;63021;52.836;6.376;2023-04-24T11:08:27;16.08;;;2.83;;
55455;SDS011;63021;52.836;6.376;2023-04-24T11:10:56;7.20;;;2.38;;
55455;SDS011;63021;52.836;6.376;2023-04-24T11:13:23;12.15;;;2.92;;
55455;SDS011;63021;52.836;6.376;2023-04-24T11:18:49;9.98;;;2.63;;
55455;SDS011;63021;52.836;6.376;2023-04-24T11:21:18;7.10;;;2.55;;
55455;SDS011;63021;52.836;6.376;2023-04-24T11:23:44;10.38;;;2.85;;
55455;SDS011;63021;52.836;6.376;2023-04-24T11:26:11;8.27;;;2.28;;
55455;SDS011;63021;52.836;6.376;2023-04-24T11:34:13;8.45;;;2.20;;
55455;SDS011;63021;52.836;6.376;2023-04-24T11:36:40;15.27;;;2.40;;
55455;SDS011;63021;52.836;6.376;2023-04-24T11:39:08;6.45;;;2.58;;
55455;SDS011;63021;52.836;6.376;2023-04-24T11:41:35;8.57;;;2.22;;
55455;SDS011;63021;52.836;6.376;2023-04-24T11:44:01;5.13;;;2.13;;
55455;SDS011;63021;52.836;6.376;2023-04-24T11:46:29;5.22;;;2.00;;
55455;SDS011;63021;52.836;6.376;2023-04-24T11:48:55;9.90;;;2.30;;
55455;SDS011;63021;52.836;6.376;2023-04-24T11:51:22;7.43;;;2.25;;
55455;SDS011;63021;52.836;6.376;2023-04-24T11:53:50;12.63;;;3.85;;
55455;SDS011;63021;52.836;6.376;2023-04-24T11:56:18;9.95;;;2.35;;
55455;SDS011;63021;52.836;6.376;2023-04-24T11:58:44;11.52;;;1.98;;
55455;SDS011;63021;52.836;6.376;2023-04-24T12:01:10;9.75;;;2.15;;
55455;SDS011;63021;52.836;6.376;2023-04-24T12:03:36;6.93;;;2.28;;
55455;SDS011;63021;52.836;6.376;2023-04-24T12:06:08;6.25;;;2.00;;
55455;SDS011;63021;52.836;6.376;2023-04-24T12:08:35;7.05;;;2.28;;
55455;SDS011;63021;52.836;6.376;2023-04-24T12:11:01;7.63;;;2.70;;
55455;SDS011;63021;52.836;6.376;2023-04-24T12:13:28;8.75;;;1.88;;
55455;SDS011;63021;52.836;6.376;2023-04-24T12:15:53;8.98;;;1.63;;
55455;SDS011;63021;52.836;6.376;2023-04-24T12:18:22;5.47;;;1.25;;
55455;SDS011;63021;52.836;6.376;2023-04-24T12:20:48;8.48;;;1.42;;
55455;SDS011;63021;52.836;6.376;2023-04-24T12:23:14;3.17;;;1.35;;
55455;SDS011;63021;52.836;6.376;2023-04-24T12:25:40;5.25;;;1.50;;
55455;SDS011;63021;52.836;6.376;2023-04-24T12:30:49;3.53;;;1.58;;
55455;SDS011;63021;52.836;6.376;2023-04-24T12:33:18;3.00;;;1.33;;
55455;SDS011;63021;52.836;6.376;2023-04-24T12:35:45;2.78;;;1.17;;
55455;SDS011;63021;52.836;6.376;2023-04-24T12:38:12;2.22;;;0.98;;
55455;SDS011;63021;52.836;6.376;2023-04-24T12:40:39;6.22;;;1.88;;
55455;SDS011;63021;52.836;6.376;2023-04-24T12:43:17;2.25;;;1.20;;
55455;SDS011;63021;52.836;6.376;2023-04-24T12:45:47;4.07;;;1.25;;
55455;SDS011;63021;52.836;6.376;2023-04-24T12:48:13;4.75;;;1.40;;
55455;SDS011;63021;52.836;6.376;2023-04-24T12:50:39;5.88;;;1.17;;
55455;SDS011;63021;52.836;6.376;2023-04-24T12:53:05;3.50;;;1.25;;
55455;SDS011;63021;52.836;6.376;2023-04-24T12:55:32;6.40;;;1.55;;
55455;SDS011;63021;52.836;6.376;2023-04-24T12:57:58;6.65;;;1.70;;
55455;SDS011;63021;52.836;6.376;2023-04-24T13:00:31;2.22;;;1.23;;
55455;SDS011;63021;52.836;6.376;2023-04-24T13:02:57;4.68;;;1.42;;
55455;SDS011;63021;52.836;6.376;2023-04-24T13:05:23;4.30;;;1.13;;
55455;SDS011;63021;52.836;6.376;2023-04-24T13:07:48;9.45;;;1.92;;
55455;SDS011;63021;52.836;6.376;2023-04-24T13:10:14;4.03;;;1.88;;
55455;SDS011;63021;52.836;6.376;2023-04-24T13:12:40;5.70;;;1.42;;
55455;SDS011;63021;52.836;6.376;2023-04-24T13:15:06;5.93;;;1.20;;
55455;SDS011;63021;52.836;6.376;2023-04-24T13:17:32;7.35;;;1.23;;
55455;SDS011;63021;52.836;6.376;2023-04-24T13:19:58;8.48;;;1.20;;
55455;SDS011;63021;52.836;6.376;2023-04-24T13:22:27;7.50;;;1.20;;
55455;SDS011;63021;52.836;6.376;2023-04-24T13:24:52;2.10;;;1.20;;
55455;SDS011;63021;52.836;6.376;2023-04-24T13:27:17;3.88;;;1.00;;
55455;SDS011;63021;52.836;6.376;2023-04-24T13:29:43;7.07;;;1.45;;
55455;SDS011;63021;52.836;6.376;2023-04-24T13:32:09;8.60;;;1.73;;
55455;SDS011;63021;52.836;6.376;2023-04-24T13:34:35;3.75;;;1.30;;
55455;SDS011;63021;52.836;6.376;2023-04-24T13:37:02;4.72;;;1.55;;
55455;SDS011;63021;52.836;6.376;2023-04-24T13:39:28;3.75;;;1.30;;
55455;SDS011;63021;52.836;6.376;2023-04-24T13:41:54;5.65;;;1.33;;
55455;SDS011;63021;52.836;6.376;2023-04-24T13:44:20;3.33;;;1.50;;
55455;SDS011;63021;52.836;6.376;2023-04-24T13:46:47;5.05;;;1.30;;
55455;SDS011;63021;52.836;6.376;2023-04-24T13:49:14;4.28;;;1.60;;
55455;SDS011;63021;52.836;6.376;2023-04-24T13:51:40;8.00;;;2.83;;
55455;SDS011;63021;52.836;6.376;2023-04-24T13:54:07;6.55;;;1.92;;
55455;SDS011;63021;52.836;6.376;2023-04-24T13:56:33;5.78;;;1.83;;
55455;SDS011;63021;52.836;6.376;2023-04-24T13:58:58;7.78;;;2.30;;
55455;SDS011;63021;52.836;6.376;2023-04-24T14:01:24;8.50;;;1.50;;
55455;SDS011;63021;52.836;6.376;2023-04-24T14:03:53;10.70;;;1.80;;
55455;SDS011;63021;52.836;6.376;2023-04-24T14:06:21;6.25;;;1.88;;
55455;SDS011;63021;52.836;6.376;2023-04-24T14:08:48;5.68;;;1.73;;
55455;SDS011;63021;52.836;6.376;2023-04-24T14:11:13;7.63;;;1.48;;
55455;SDS011;63021;52.836;6.376;2023-04-24T14:13:40;10.25;;;2.17;;
55455;SDS011;63021;52.836;6.376;2023-04-24T14:16:06;6.93;;;1.63;;
55455;SDS011;63021;52.836;6.376;2023-04-24T14:18:32;13.55;;;2.78;;
55455;SDS011;63021;52.836;6.376;2023-04-24T14:21:01;9.63;;;2.00;;
55455;SDS011;63021;52.836;6.376;2023-04-24T14:23:30;9.90;;;2.45;;
55455;SDS011;63021;52.836;6.376;2023-04-24T14:25:59;6.75;;;2.08;;
55455;SDS011;63021;52.836;6.376;2023-04-24T14:28:25;13.18;;;3.83;;
55455;SDS011;63021;52.836;6.376;2023-04-24T14:30:54;8.45;;;2.30;;
55455;SDS011;63021;52.836;6.376;2023-04-24T14:33:19;16.85;;;2.78;;
55455;SDS011;63021;52.836;6.376;2023-04-24T14:35:45;11.32;;;2.70;;
55455;SDS011;63021;52.836;6.376;2023-04-24T14:38:13;13.10;;;2.72;;
55455;SDS011;63021;52.836;6.376;2023-04-24T14:40:40;9.80;;;3.30;;
55455;SDS011;63021;52.836;6.376;2023-04-24T14:43:05;12.32;;;2.38;;
55455;SDS011;63021;52.836;6.376;2023-04-24T14:45:32;11.07;;;3.15;;
55455;SDS011;63021;52.836;6.376;2023-04-24T14:48:01;11.40;;;2.72;;
55455;SDS011;63021;52.836;6.376;2023-04-24T14:50:27;7.28;;;2.58;;
55455;SDS011;63021;52.836;6.376;2023-04-24T14:52:53;8.80;;;2.38;;
55455;SDS011;63021;52.836;6.376;2023-04-24T14:55:22;9.32;;;2.45;;